Time;durP1;ratioP1;P1;durP2;ratioP2;P2;SDS_P1;SDS_P2;PMS_P1;PMS_P2;Temp;Humidity;BMP_temperature;BMP_pressure;BME280_temperature;BME280_humidity;BME280_pressure;Samples;Min_cycle;Max_cycle;Signal;HPM_P1;HPM_P2
2023/12/22 00:02:16;;;;;;;14.70;3.10;;;;;;;5.69;100.00;100276.78;5042983;28;20029;-59
2023/12/22 00:04:41;;;;;;;16.27;3.30;;;;;;;5.67;100.00;100278.69;5036405;28;20029;-60
2023/12/22 00:07:06;;;;;;;15.77;3.25;;;;;;;5.64;100.00;100263.91;5039777;28;20028;-60
2023/12/22 00:09:31;;;;;;;15.93;2.90;;;;;;;5.62;100.00;100257.06;5038424;28;20032;-60
2023/12/22 00:11:57;;;;;;;13.82;2.80;;;;;;;5.62;100.00;100264.97;5041601;28;20039;-60
2023/12/22 00:14:22;;;;;;;11.45;2.85;;;;;;;5.61;100.00;100252.75;5038511;28;20048;-59
2023/12/22 00:16:47;;;;;;;20.23;3.65;;;;;;;5.60;100.00;100254.53;5035962;28;20079;-60
2023/12/22 00:19:12;;;;;;;20.85;3.58;;;;;;;5.63;100.00;100261.38;5032254;28;20029;-59
2023/12/22 00:21:38;;;;;;;18.40;3.90;;;;;;;5.63;100.00;100291.22;5039201;28;20158;-60
2023/12/22 00:24:04;;;;;;;12.70;2.92;;;;;;;5.63;100.00;100291.22;5040575;28;20029;-58
2023/12/22 00:26:29;;;;;;;17.00;3.17;;;;;;;5.64;100.00;100290.25;5042647;28;20048;-60
2023/12/22 00:28:54;;;;;;;11.68;2.80;;;;;;;5.61;100.00;100300.16;5036943;28;20394;-60
2023/12/22 00:31:19;;;;;;;13.60;3.35;;;;;;;5.59;100.00;100288.88;5039780;28;20088;-60
2023/12/22 00:33:45;;;;;;;16.02;3.20;;;;;;;5.55;100.00;100306.69;5030952;28;20494;-59
2023/12/22 00:36:10;;;;;;;14.93;3.13;;;;;;;5.55;100.00;100307.53;5037949;28;20410;-60
2023/12/22 00:38:36;;;;;;;18.00;3.53;;;;;;;5.55;100.00;100298.78;5037845;28;20029;-59
2023/12/22 00:41:01;;;;;;;17.42;2.92;;;;;;;5.56;100.00;100308.34;5037563;28;20533;-60
2023/12/22 00:43:26;;;;;;;12.25;3.17;;;;;;;5.56;100.00;100303.09;5031214;28;20025;-59
2023/12/22 00:45:52;;;;;;;24.52;4.15;;;;;;;5.57;100.00;100299.53;5037162;28;20025;-60
2023/12/22 00:48:18;;;;;;;14.20;2.95;;;;;;;5.58;100.00;100306.50;5038432;28;20049;-60
2023/12/22 00:50:43;;;;;;;21.45;4.32;;;;;;;5.60;100.00;100309.03;5034675;28;20025;-59
2023/12/22 00:53:08;;;;;;;23.08;3.50;;;;;;;5.61;100.00;100308.91;5039712;28;20128;-59
2023/12/22 00:55:33;;;;;;;14.02;3.28;;;;;;;5.62;100.00;100296.59;5036209;28;20498;-60
2023/12/22 00:57:59;;;;;;;17.77;3.60;;;;;;;5.63;100.00;100311.44;5040548;28;20032;-59
2023/12/22 01:00:24;;;;;;;16.15;3.85;;;;;;;5.64;100.00;100313.13;5039947;28;20084;-60
2023/12/22 01:02:49;;;;;;;20.48;3.47;;;;;;;5.62;100.00;100301.88;5035901;28;20025;-60
2023/12/22 01:05:15;;;;;;;21.35;3.80;;;;;;;5.63;100.00;100295.63;5038118;28;20028;-57
2023/12/22 01:07:40;;;;;;;20.42;3.92;;;;;;;5.64;100.00;100316.63;5037074;28;20029;-59
2023/12/22 01:10:06;;;;;;;15.23;3.40;;;;;;;5.67;100.00;100328.75;5038905;28;20095;-59
2023/12/22 01:12:31;;;;;;;14.40;3.25;;;;;;;5.74;100.00;100312.47;5040304;28;20037;-58
2023/12/22 01:14:57;;;;;;;16.25;3.05;;;;;;;5.83;100.00;100294.34;5037935;28;20103;-59
2023/12/22 01:17:22;;;;;;;11.98;3.05;;;;;;;5.89;100.00;100315.84;5037225;28;20030;-58
2023/12/22 01:19:47;;;;;;;18.73;4.15;;;;;;;5.93;100.00;100321.81;5039655;28;20022;-58
2023/12/22 01:22:13;;;;;;;13.60;3.47;;;;;;;5.93;100.00;100312.09;5037170;28;20096;-59
2023/12/22 01:24:40;;;;;;;12.55;3.50;;;;;;;5.97;100.00;100320.66;5040678;28;20104;-58
2023/12/22 01:27:06;;;;;;;18.27;3.58;;;;;;;5.98;100.00;100332.91;5037152;28;20040;-60
2023/12/22 01:29:32;;;;;;;17.33;4.25;;;;;;;6.01;100.00;100331.84;5040456;28;20026;-59
2023/12/22 01:31:57;;;;;;;15.48;4.07;;;;;;;6.03;100.00;100341.38;5038029;28;20024;-59
2023/12/22 01:34:22;;;;;;;16.55;3.65;;;;;;;6.07;100.00;100345.47;5032435;28;20394;-58
2023/12/22 01:36:47;;;;;;;13.98;3.50;;;;;;;6.06;100.00;100335.91;5036316;28;20058;-59
2023/12/22 01:39:13;;;;;;;21.00;4.13;;;;;;;6.08;100.00;100343.72;5040276;28;20507;-60
2023/12/22 01:41:38;;;;;;;19.30;3.65;;;;;;;6.07;100.00;100345.47;5037206;28;20021;-59
2023/12/22 01:44:04;;;;;;;19.33;3.30;;;;;;;6.07;100.00;100345.47;5039920;28;20014;-59
2023/12/22 01:46:29;;;;;;;15.45;3.42;;;;;;;6.07;100.00;100348.13;5015660;28;20033;-59
2023/12/22 01:48:55;;;;;;;18.55;3.15;;;;;;;6.07;100.00;100348.13;5035225;28;20017;-59
2023/12/22 01:51:20;;;;;;;20.00;3.47;;;;;;;6.04;100.00;100342.19;5036836;28;20502;-59
2023/12/22 01:53:46;;;;;;;17.35;3.40;;;;;;;6.05;100.00;100355.28;5038251;28;20036;-59
2023/12/22 01:56:11;;;;;;;12.43;3.15;;;;;;;6.02;100.00;100352.84;5034961;28;21311;-59
2023/12/22 01:58:37;;;;;;;16.67;3.45;;;;;;;6.01;100.00;100359.09;5034950;28;20055;-60
2023/12/22 02:01:03;;;;;;;17.67;3.40;;;;;;;6.01;100.00;100367.00;5034004;28;20037;-59
2023/12/22 02:03:29;;;;;;;13.80;3.63;;;;;;;6.01;100.00;100372.25;5039804;28;20051;-59
2023/12/22 02:05:55;;;;;;;23.80;3.58;;;;;;;6.03;100.00;100366.88;5040787;28;20036;-59
2023/12/22 02:08:22;;;;;;;15.02;3.20;;;;;;;6.04;100.00;100374.66;5036691;28;20430;-59
2023/12/22 02:10:48;;;;;;;18.75;4.38;;;;;;;6.06;100.00;100364.91;5039196;28;20034;-60
2023/12/22 02:13:13;;;;;;;17.75;4.70;;;;;;;6.07;100.00;100361.28;5040655;28;20052;-59
2023/12/22 02:15:39;;;;;;;18.35;3.78;;;;;;;6.07;100.00;100363.94;5019292;28;20025;-59
2023/12/22 02:18:13;;;;;;;14.55;3.33;;;;;;;6.09;100.00;100345.38;5039856;28;20037;-59
2023/12/22 02:20:39;;;;;;;19.00;3.92;;;;;;;6.09;100.00;100345.38;5033055;28;20111;-59
2023/12/22 02:23:04;;;;;;;15.07;3.58;;;;;;;6.07;100.00;100339.38;5037870;28;20101;-59
2023/12/22 02:25:29;;;;;;;18.52;3.20;;;;;;;6.07;100.00;100347.28;5041451;28;20395;-58
2023/12/22 02:28:09;;;;;;;19.08;3.40;;;;;;;6.09;100.00;100355.94;5041863;28;20068;-59
2023/12/22 02:30:43;;;;;;;19.08;3.63;;;;;;;6.08;100.00;100360.38;5040920;28;20037;-59
2023/12/22 02:33:10;;;;;;;20.88;3.83;;;;;;;6.09;100.00;100372.56;5036853;28;20382;-59
2023/12/22 02:35:38;;;;;;;21.58;4.38;;;;;;;6.11;100.00;100386.53;5039178;28;20025;-60
2023/12/22 02:38:05;;;;;;;15.05;3.53;;;;;;;6.10;100.00;100395.38;5035867;28;20025;-59
2023/12/22 02:40:31;;;;;;;13.45;2.97;;;;;;;6.07;100.00;100411.38;5033635;28;20033;-59
2023/12/22 02:42:56;;;;;;;18.33;3.80;;;;;;;6.03;100.00;100403.78;5036678;28;20032;-59
2023/12/22 02:45:22;;;;;;;16.10;2.95;;;;;;;5.95;100.00;100387.59;5036407;28;20026;-60
2023/12/22 02:47:48;;;;;;;16.80;3.30;;;;;;;5.87;100.00;100381.00;5040489;28;20485;-59
2023/12/22 02:50:14;;;;;;;18.85;3.95;;;;;;;5.83;100.00;100383.94;5037388;28;20500;-60
2023/12/22 02:52:40;;;;;;;16.50;3.65;;;;;;;5.77;100.00;100376.44;5038014;28;20090;-58
2023/12/22 02:55:06;;;;;;;15.65;3.20;;;;;;;5.74;100.00;100382.75;5039508;28;20022;-58
2023/12/22 02:57:31;;;;;;;14.52;3.38;;;;;;;5.72;100.00;100372.28;5037850;28;20036;-58
2023/12/22 02:59:57;;;;;;;15.95;3.97;;;;;;;5.69;100.00;100355.84;5037469;28;20383;-58
2023/12/22 03:02:22;;;;;;;18.10;3.40;;;;;;;5.67;100.00;100352.47;5036188;28;20028;-57
2023/12/22 03:04:48;;;;;;;13.15;3.40;;;;;;;5.65;100.00;100357.00;5035402;28;20156;-58
2023/12/22 03:07:14;;;;;;;25.50;4.68;;;;;;;5.66;100.00;100354.28;5038260;28;20030;-58
2023/12/22 03:09:40;;;;;;;17.02;3.97;;;;;;;5.68;100.00;100352.38;5036765;28;20081;-57
2023/12/22 03:12:06;;;;;;;17.15;3.85;;;;;;;5.70;100.00;100347.00;5032075;28;20029;-56
2023/12/22 03:14:33;;;;;;;21.05;3.60;;;;;;;5.72;100.00;100347.75;5034537;28;20037;-58
2023/12/22 03:17:04;;;;;;;18.55;3.45;;;;;;;5.73;100.00;100338.91;5037561;28;20133;-57
2023/12/22 03:19:29;;;;;;;24.75;4.00;;;;;;;5.75;100.00;100339.66;5036196;28;20042;-58
2023/12/22 03:21:56;;;;;;;25.33;5.63;;;;;;;5.80;100.00;100337.56;5037445;28;20377;-58
2023/12/22 03:24:22;;;;;;;17.65;3.72;;;;;;;5.80;100.00;100334.09;5030251;28;20123;-58
2023/12/22 03:26:48;;;;;;;19.88;4.43;;;;;;;5.82;100.00;100330.41;5040790;28;20026;-58
2023/12/22 03:29:13;;;;;;;22.85;4.10;;;;;;;5.82;100.00;100330.41;5036815;28;20025;-58
2023/12/22 03:31:38;;;;;;;20.27;4.13;;;;;;;5.87;100.00;100333.56;5037289;28;20044;-57
2023/12/22 03:34:04;;;;;;;16.75;3.83;;;;;;;5.89;100.00;100334.31;5037191;28;20387;-58
2023/12/22 03:36:29;;;;;;;21.48;3.55;;;;;;;5.90;100.00;100341.28;5042091;28;20040;-58
2023/12/22 03:38:54;;;;;;;21.38;4.38;;;;;;;5.97;100.00;100340.91;5039468;28;20037;-58
2023/12/22 03:41:20;;;;;;;10.95;2.85;;;;;;;6.02;100.00;100342.28;5041829;28;20033;-57
2023/12/22 03:43:45;;;;;;;12.07;3.13;;;;;;;6.09;100.00;100338.31;5037646;28;20025;-57
2023/12/22 03:46:10;;;;;;;19.92;3.92;;;;;;;6.16;100.00;100335.28;5040320;28;20442;-57
2023/12/22 03:48:36;;;;;;;17.20;3.40;;;;;;;6.21;100.00;100341.09;5038190;28;20029;-57
2023/12/22 03:51:01;;;;;;;19.15;3.30;;;;;;;6.24;100.00;100349.63;5039358;28;20520;-58
2023/12/22 03:53:26;;;;;;;15.35;3.40;;;;;;;6.27;100.00;100356.50;5039562;28;20033;-58
2023/12/22 03:55:52;;;;;;;16.92;3.15;;;;;;;6.30;100.00;100351.88;5038056;28;20415;-57
2023/12/22 03:58:17;;;;;;;14.52;3.83;;;;;;;6.33;100.00;100342.06;5032820;28;20025;-58
2023/12/22 04:00:42;;;;;;;18.58;3.53;;;;;;;6.33;100.00;100353.47;5038880;28;20025;-58
2023/12/22 04:03:07;;;;;;;16.85;3.55;;;;;;;6.34;100.00;100355.13;5039480;28;20034;-58
2023/12/22 04:05:33;;;;;;;14.85;3.53;;;;;;;6.40;100.00;100351.28;5037300;28;20273;-58
2023/12/22 04:07:58;;;;;;;16.00;3.50;;;;;;;6.41;100.00;100352.94;5036007;28;20108;-57
2023/12/22 04:10:23;;;;;;;14.18;3.13;;;;;;;6.44;100.00;100361.47;5034761;28;20060;-58
2023/12/22 04:12:49;;;;;;;14.90;3.33;;;;;;;6.48;100.00;100365.63;5018148;28;20025;-56
2023/12/22 04:15:14;;;;;;;15.43;3.38;;;;;;;6.51;100.00;100369.00;5033757;28;20061;-58
2023/12/22 04:17:39;;;;;;;15.18;3.70;;;;;;;6.53;100.00;100367.09;5040186;28;20363;-58
2023/12/22 04:20:08;;;;;;;18.13;3.70;;;;;;;6.53;100.00;100381.16;5037959;28;20083;-58
2023/12/22 04:22:33;;;;;;;14.93;3.50;;;;;;;6.57;100.00;100379.16;5039598;28;20067;-58
2023/12/22 04:24:59;;;;;;;13.15;3.22;;;;;;;6.58;100.00;100368.50;5031601;28;20061;-58
2023/12/22 04:27:24;;;;;;;16.60;4.28;;;;;;;6.59;100.00;100375.44;5033718;28;20029;-58
2023/12/22 04:29:49;;;;;;;15.60;3.50;;;;;;;6.62;100.00;100379.69;5041689;28;20481;-58
2023/12/22 04:32:14;;;;;;;19.80;3.45;;;;;;;6.64;100.00;100385.69;5040560;28;20111;-58
2023/12/22 04:34:40;;;;;;;13.63;2.80;;;;;;;6.66;100.00;100386.44;5038362;28;20033;-59
2023/12/22 04:37:05;;;;;;;14.70;3.40;;;;;;;6.66;100.00;100389.94;5037644;28;20017;-60
2023/12/22 04:39:30;;;;;;;12.98;3.35;;;;;;;6.67;100.00;100396.88;5038569;28;20033;-58
2023/12/22 04:41:55;;;;;;;16.23;4.20;;;;;;;6.69;100.00;100398.59;5040245;28;20029;-59
2023/12/22 04:44:21;;;;;;;15.13;3.70;;;;;;;6.68;100.00;100400.38;5037104;28;20175;-59
2023/12/22 04:46:46;;;;;;;16.42;3.38;;;;;;;6.65;100.00;100401.44;5039765;28;20033;-60
2023/12/22 04:49:11;;;;;;;14.90;4.05;;;;;;;6.64;100.00;100389.19;5032349;28;20037;-59
2023/12/22 04:51:37;;;;;;;20.92;3.78;;;;;;;6.66;100.00;100395.22;5034321;28;20464;-59
2023/12/22 04:54:02;;;;;;;11.50;3.50;;;;;;;6.66;100.00;100395.22;5036876;28;20120;-59
2023/12/22 04:56:28;;;;;;;19.20;3.47;;;;;;;6.69;100.00;100388.03;5030231;28;20084;-58
2023/12/22 04:58:53;;;;;;;20.40;3.90;;;;;;;6.67;100.00;100382.84;5038021;28;20088;-59
2023/12/22 05:01:19;;;;;;;18.40;3.83;;;;;;;6.71;100.00;100394.03;5040200;28;20018;-59
2023/12/22 05:03:44;;;;;;;14.93;3.05;;;;;;;6.72;100.00;100398.38;5042772;28;20022;-59
2023/12/22 05:06:09;;;;;;;16.08;3.58;;;;;;;6.73;100.00;100414.13;5038731;28;20382;-58
2023/12/22 05:08:35;;;;;;;12.43;3.50;;;;;;;6.74;100.00;100410.50;5036010;28;20381;-59
2023/12/22 05:11:00;;;;;;;16.10;3.40;;;;;;;6.77;100.00;100422.66;5035876;28;20025;-60
2023/12/22 05:13:25;;;;;;;18.63;3.47;;;;;;;6.79;100.00;100402.28;5037896;28;20051;-59
2023/12/22 05:15:51;;;;;;;17.40;3.70;;;;;;;6.79;100.00;100402.28;5037681;28;20026;-59
2023/12/22 05:18:16;;;;;;;18.90;3.42;;;;;;;6.79;100.00;100389.09;5037286;28;20029;-59
2023/12/22 05:20:41;;;;;;;21.33;4.35;;;;;;;6.81;100.00;100379.25;5037789;28;20105;-57
2023/12/22 05:23:06;;;;;;;23.30;4.82;;;;;;;6.83;100.00;100407.25;5034659;28;20032;-59
2023/12/22 05:25:32;;;;;;;29.83;5.45;;;;;;;6.87;100.00;100399.13;5034525;28;20025;-60
2023/12/22 05:27:57;;;;;;;24.00;5.13;;;;;;;6.90;100.00;100407.69;5037498;28;20026;-59
2023/12/22 05:30:22;;;;;;;23.88;5.05;;;;;;;6.94;100.00;100403.88;5040252;28;20044;-59
2023/12/22 05:32:48;;;;;;;24.48;4.82;;;;;;;6.96;100.00;100402.00;5037990;28;20045;-59
2023/12/22 05:35:13;;;;;;;21.52;4.13;;;;;;;7.00;100.00;100399.97;5036790;28;20030;-60
2023/12/22 05:37:38;;;;;;;20.75;4.90;;;;;;;6.99;100.00;100393.00;5039098;28;20036;-59
2023/12/22 05:40:06;;;;;;;18.67;4.22;;;;;;;7.00;100.00;100400.81;5038434;28;20030;-60
2023/12/22 05:42:32;;;;;;;23.73;4.95;;;;;;;6.99;100.00;100393.00;5037084;28;20033;-59
2023/12/22 05:44:58;;;;;;;19.55;3.90;;;;;;;6.98;100.00;100402.72;5022327;28;20510;-58
2023/12/22 05:47:23;;;;;;;23.23;6.05;;;;;;;6.96;100.00;100388.78;5036906;28;20022;-58
2023/12/22 05:49:49;;;;;;;27.25;5.63;;;;;;;6.95;100.00;100388.91;5040423;28;20026;-57
2023/12/22 05:52:14;;;;;;;31.67;6.22;;;;;;;6.94;100.00;100385.38;5035582;28;20045;-58
2023/12/22 05:54:39;;;;;;;28.55;6.10;;;;;;;6.95;100.00;100399.47;5038303;28;20037;-59
2023/12/22 05:57:06;;;;;;;27.20;5.55;;;;;;;6.95;100.00;100404.75;5037998;28;20025;-58
2023/12/22 05:59:32;;;;;;;29.13;5.55;;;;;;;6.94;100.00;100388.03;5031339;28;20087;-57
2023/12/22 06:01:58;;;;;;;28.60;5.65;;;;;;;6.93;100.00;100394.28;5037640;28;20024;-59
2023/12/22 06:04:24;;;;;;;26.95;6.40;;;;;;;6.93;100.00;100390.78;5038403;28;20051;-58
2023/12/22 06:06:49;;;;;;;31.27;5.47;;;;;;;6.94;100.00;100385.38;5038321;28;20471;-58
2023/12/22 06:09:17;;;;;;;30.67;5.55;;;;;;;6.95;100.00;100380.97;5037753;28;20434;-59
2023/12/22 06:11:42;;;;;;;27.98;6.22;;;;;;;6.97;100.00;100384.34;5039196;28;20035;-59
2023/12/22 06:14:07;;;;;;;30.83;6.07;;;;;;;6.97;100.00;100384.34;5038352;28;20041;-59
2023/12/22 06:16:33;;;;;;;27.83;5.93;;;;;;;6.99;100.00;100377.16;5035005;28;20029;-58
2023/12/22 06:18:58;;;;;;;32.83;5.95;;;;;;;7.03;100.00;100378.66;5033525;28;20029;-59
2023/12/22 06:21:23;;;;;;;27.73;5.93;;;;;;;7.05;100.00;100379.38;5040098;28;20021;-59
2023/12/22 06:23:48;;;;;;;29.92;5.88;;;;;;;7.07;100.00;100369.56;5038200;28;20025;-59
2023/12/22 06:26:14;;;;;;;30.30;6.40;;;;;;;7.08;100.00;100373.91;5033046;28;20029;-56
2023/12/22 06:28:39;;;;;;;32.25;6.90;;;;;;;7.13;100.00;100369.13;5036588;28;20474;-58
2023/12/22 06:31:18;;;;;;;34.92;6.63;;;;;;;7.22;100.00;100378.19;5041891;28;20025;-57
2023/12/22 06:33:43;;;;;;;28.75;6.50;;;;;;;7.23;100.00;100380.75;5036628;28;20057;-58
2023/12/22 06:36:17;;;;;;;29.85;7.05;;;;;;;7.28;100.00;100379.56;5038349;28;20068;-57
2023/12/22 06:38:43;;;;;;;30.30;6.53;;;;;;;7.28;100.00;100382.19;5027785;28;20030;-57
2023/12/22 06:41:18;;;;;;;28.45;6.80;;;;;;;7.28;100.00;100392.75;5038028;28;20072;-58
2023/12/22 06:43:44;;;;;;;32.83;6.53;;;;;;;7.28;100.00;100411.25;5033454;28;20062;-57
2023/12/22 06:46:16;;;;;;;33.35;6.82;;;;;;;7.29;100.00;100418.25;5035584;28;20113;-58
2023/12/22 06:48:41;;;;;;;33.60;7.07;;;;;;;7.30;100.00;100404.94;5034696;28;20036;-58
2023/12/22 06:51:07;;;;;;;32.92;6.05;;;;;;;7.34;100.00;100397.63;5033127;28;20074;-58
2023/12/22 06:53:32;;;;;;;35.53;7.32;;;;;;;7.33;100.00;100391.50;5034668;28;20026;-58
2023/12/22 06:55:57;;;;;;;35.78;7.50;;;;;;;7.35;100.00;100394.88;5034180;28;20034;-57
2023/12/22 06:58:25;;;;;;;37.15;6.20;;;;;;;7.37;100.00;100392.97;5034468;28;20028;-58
2023/12/22 07:00:50;;;;;;;32.95;7.07;;;;;;;7.38;100.00;100397.31;5033650;28;20124;-60
2023/12/22 07:03:17;;;;;;;30.80;7.00;;;;;;;7.40;100.00;100399.84;5044928;28;20075;-57
2023/12/22 07:05:42;;;;;;;32.83;6.82;;;;;;;7.42;100.00;100392.66;5041267;28;20547;-57
2023/12/22 07:08:08;;;;;;;31.88;6.68;;;;;;;7.43;100.00;100401.41;5032180;28;20037;-58
2023/12/22 07:10:33;;;;;;;30.63;6.43;;;;;;;7.42;100.00;100395.28;5032852;28;20080;-58
2023/12/22 07:12:58;;;;;;;28.23;7.32;;;;;;;7.44;100.00;100390.75;5033731;28;20053;-56
2023/12/22 07:15:24;;;;;;;36.85;7.55;;;;;;;7.45;100.00;100400.38;5035107;28;20116;-58
2023/12/22 07:17:49;;;;;;;28.15;6.47;;;;;;;7.48;100.00;100384.28;5023859;28;20033;-58
2023/12/22 07:20:14;;;;;;;33.25;7.03;;;;;;;7.50;100.00;100387.66;5038484;28;20029;-59
2023/12/22 07:22:40;;;;;;;25.83;6.05;;;;;;;7.51;100.00;100397.31;5040194;28;20075;-58
2023/12/22 07:25:07;;;;;;;32.17;6.88;;;;;;;7.52;100.00;100401.59;5035025;28;20453;-58
2023/12/22 07:27:32;;;;;;;30.63;6.65;;;;;;;7.52;100.00;100385.75;5039851;28;20060;-58
2023/12/22 07:29:58;;;;;;;28.02;6.50;;;;;;;7.52;100.00;100395.50;5043633;28;20021;-57
2023/12/22 07:32:23;;;;;;;33.10;6.78;;;;;;;7.54;100.00;100388.28;5038134;28;20021;-58
2023/12/22 07:34:49;;;;;;;32.17;6.85;;;;;;;7.57;100.00;100390.72;5038747;28;20028;-58
2023/12/22 07:37:14;;;;;;;34.63;7.35;;;;;;;7.58;100.00;100385.31;5033112;28;20025;-57
2023/12/22 07:39:39;;;;;;;31.55;7.13;;;;;;;7.63;100.00;100389.44;5035867;28;20544;-58
2023/12/22 07:42:06;;;;;;;37.38;6.72;;;;;;;7.64;100.00;100386.66;5033719;28;20116;-57
2023/12/22 07:44:32;;;;;;;27.98;6.38;;;;;;;7.63;100.00;100386.78;5035911;28;20505;-57
2023/12/22 07:47:01;;;;;;;32.80;6.35;;;;;;;7.62;100.00;100379.81;5034131;28;20029;-58
2023/12/22 07:49:27;;;;;;;;;;;;;;;7.67;100.00;100386.47;5039064;28;20061;-59
2023/12/22 07:51:52;;;;;;;25.60;6.40;;;;;;;7.64;100.00;100384.03;5037839;28;19920;-58
2023/12/22 07:54:18;;;;;;;38.33;6.38;;;;;;;7.63;100.00;100381.50;5041385;28;20026;-58
2023/12/22 07:56:43;;;;;;;30.70;6.10;;;;;;;7.64;100.00;100378.75;5030444;28;20038;-58
2023/12/22 07:59:09;;;;;;;28.55;5.78;;;;;;;7.64;100.00;100378.75;5035819;28;20378;-57
2023/12/22 08:01:34;;;;;;;32.50;6.85;;;;;;;7.65;100.00;100380.44;5029456;28;20034;-58
2023/12/22 08:03:59;;;;;;;33.92;7.10;;;;;;;7.64;100.00;100386.66;5033820;28;20479;-58
2023/12/22 08:06:25;;;;;;;35.03;6.38;;;;;;;7.63;100.00;100374.44;5037758;28;20410;-58
2023/12/22 08:08:50;;;;;;;24.20;6.05;;;;;;;7.64;100.00;100397.25;5037806;28;20037;-58
2023/12/22 08:11:15;;;;;;;24.02;5.32;;;;;;;7.66;100.00;100383.91;5016710;28;20071;-58
2023/12/22 08:13:40;;;;;;;21.98;5.07;;;;;;;7.68;100.00;100393.44;5034856;28;20044;-58
2023/12/22 08:16:06;;;;;;;24.27;5.35;;;;;;;7.70;100.00;100388.06;5033266;28;20073;-57
2023/12/22 08:18:31;;;;;;;28.27;5.55;;;;;;;7.70;100.00;100377.47;5035595;28;20032;-56
2023/12/22 08:20:56;;;;;;;23.45;5.22;;;;;;;7.70;100.00;100383.59;5034870;28;20021;-54
2023/12/22 08:23:21;;;;;;;20.10;4.82;;;;;;;7.72;100.00;100388.78;5035926;28;20041;-56
2023/12/22 08:25:47;;;;;;;27.20;5.85;;;;;;;7.74;100.00;100377.16;5018993;28;20036;-56
2023/12/22 08:28:13;;;;;;;25.25;4.85;;;;;;;7.79;100.00;100390.00;5039235;28;20022;-56
2023/12/22 08:30:38;;;;;;;19.98;4.50;;;;;;;7.80;100.00;100383.78;5035127;28;20052;-58
2023/12/22 08:33:04;;;;;;;21.70;4.32;;;;;;;7.82;100.00;100378.38;5034690;28;20418;-57
2023/12/22 08:35:30;;;;;;;22.48;4.30;;;;;;;7.81;100.00;100389.91;5037883;28;20025;-57
2023/12/22 08:37:55;;;;;;;17.85;3.88;;;;;;;7.82;100.00;100386.31;5036242;28;20029;-56
2023/12/22 08:40:25;;;;;;;19.35;4.35;;;;;;;7.82;100.00;100383.69;5033355;28;20037;-56
2023/12/22 08:42:54;;;;;;;17.65;3.83;;;;;;;7.83;100.00;100383.56;5038316;28;20672;-57
2023/12/22 08:45:19;;;;;;;19.23;4.85;;;;;;;7.84;100.00;100379.13;5033939;28;20140;-58
2023/12/22 08:47:45;;;;;;;16.80;3.97;;;;;;;7.82;100.00;100368.66;5034913;28;20795;-56
2023/12/22 08:50:12;;;;;;;20.88;4.43;;;;;;;7.83;100.00;100373.00;5036015;28;20404;-58
2023/12/22 08:52:37;;;;;;;13.85;3.50;;;;;;;7.84;100.00;100382.59;5039212;28;20025;-58
2023/12/22 08:55:05;;;;;;;15.95;3.67;;;;;;;7.84;100.00;100376.47;5036314;28;20159;-57
2023/12/22 08:57:31;;;;;;;12.15;3.05;;;;;;;7.83;100.00;100377.41;5040412;28;20251;-58
2023/12/22 08:59:57;;;;;;;12.50;3.55;;;;;;;7.82;100.00;100367.81;5040568;28;20099;-58
2023/12/22 09:02:22;;;;;;;11.80;2.78;;;;;;;7.83;100.00;100370.34;5034854;28;21673;-59
2023/12/22 09:04:47;;;;;;;11.68;2.42;;;;;;;7.82;100.00;100365.16;5034249;28;20025;-58
2023/12/22 09:07:13;;;;;;;11.27;3.00;;;;;;;7.81;100.00;100366.13;5036060;28;20026;-58
2023/12/22 09:09:38;;;;;;;12.52;2.85;;;;;;;7.81;100.00;100358.19;5031478;28;20165;-58
2023/12/22 09:12:04;;;;;;;12.32;2.97;;;;;;;7.84;100.00;100361.44;5036015;28;20017;-57
2023/12/22 09:14:30;;;;;;;10.68;2.85;;;;;;;7.85;100.00;100351.72;5038740;28;20037;-58
2023/12/22 09:16:55;;;;;;;6.93;2.30;;;;;;;7.87;100.00;100365.69;5039578;28;20033;-58
2023/12/22 09:19:21;;;;;;;9.38;2.47;;;;;;;7.89;100.00;100359.34;5036462;28;20037;-57
2023/12/22 09:21:47;;;;;;;9.50;2.38;;;;;;;7.92;100.00;100361.72;5041876;28;20040;-58
2023/12/22 09:24:12;;;;;;;10.55;2.40;;;;;;;7.93;100.00;100344.91;5040269;28;20045;-56
2023/12/22 09:26:37;;;;;;;7.78;2.35;;;;;;;7.94;100.00;100362.47;5037503;28;20083;-57
2023/12/22 09:29:03;;;;;;;10.02;2.38;;;;;;;7.97;100.00;100366.69;5035851;28;20036;-57
2023/12/22 09:31:28;;;;;;;7.95;1.83;;;;;;;8.01;100.00;100356.72;5035482;28;20053;-58
2023/12/22 09:33:53;;;;;;;9.38;2.28;;;;;;;8.04;100.00;100348.56;5042443;28;20032;-57
2023/12/22 09:36:18;;;;;;;8.32;2.08;;;;;;;8.07;100.00;100346.53;5039919;28;20139;-57
2023/12/22 09:38:44;;;;;;;7.97;1.88;;;;;;;8.13;100.00;100347.91;5031122;28;20075;-58
2023/12/22 09:41:10;;;;;;;8.75;2.47;;;;;;;8.13;100.00;100335.50;5042126;28;20095;-57
2023/12/22 09:43:36;;;;;;;7.53;2.05;;;;;;;8.18;100.00;100343.09;5033168;28;20033;-57
2023/12/22 09:46:02;;;;;;;5.05;1.70;;;;;;;8.23;100.00;100343.59;5037098;28;20494;-57
2023/12/22 09:48:30;;;;;;;7.63;1.90;;;;;;;8.24;100.00;100324.09;5041914;28;20052;-58
2023/12/22 09:50:58;;;;;;;13.77;2.45;;;;;;;8.29;100.00;100337.00;5034729;28;20024;-57
2023/12/22 09:53:24;;;;;;;8.63;1.77;;;;;;;8.34;100.00;100341.00;5032120;28;20033;-54
2023/12/22 09:55:50;;;;;;;6.43;2.20;;;;;;;8.38;100.00;100336.31;5037865;28;20037;-57
2023/12/22 09:58:16;;;;;;;6.82;2.10;;;;;;;8.39;100.00;100342.44;5032644;28;20083;-57
2023/12/22 10:00:43;;;;;;;5.63;1.83;;;;;;;8.41;100.00;100346.66;5037252;28;20460;-56
2023/12/22 10:03:10;;;;;;;7.90;1.98;;;;;;;8.43;100.00;100336.00;5032628;28;20554;-58
2023/12/22 10:05:36;;;;;;;9.15;1.80;;;;;;;8.47;100.00;100332.16;5037733;28;20505;-57
2023/12/22 10:08:02;;;;;;;5.90;1.88;;;;;;;8.52;100.00;100338.78;5035306;28;20037;-57
2023/12/22 10:10:32;;;;;;;7.65;2.00;;;;;;;8.56;100.00;100341.19;5037469;28;20038;-58
2023/12/22 10:12:58;;;;;;;5.55;1.80;;;;;;;8.62;100.00;100336.25;5036962;28;20049;-57
2023/12/22 10:15:25;;;;;;;7.10;1.88;;;;;;;8.67;100.00;100330.63;5038135;28;20029;-57
2023/12/22 10:17:52;;;;;;;7.32;2.20;;;;;;;8.72;100.00;100332.94;5035974;28;20025;-57
2023/12/22 10:20:17;;;;;;;5.82;1.92;;;;;;;8.76;100.00;100337.00;5031417;28;20116;-58
2023/12/22 10:22:43;;;;;;;11.13;2.20;;;;;;;8.79;100.00;100339.44;5017781;28;20233;-57
2023/12/22 10:25:08;;;;;;;7.20;2.05;;;;;;;8.80;100.00;100341.13;5033108;28;20030;-57
2023/12/22 10:27:35;;;;;;;8.15;2.50;;;;;;;8.82;100.00;100345.31;5033398;28;20111;-58
2023/12/22 10:30:02;;;;;;;5.30;2.10;;;;;;;8.83;100.00;100339.06;5035515;28;20033;-58
2023/12/22 10:32:28;;;;;;;7.05;2.13;;;;;;;8.84;100.00;100343.41;5038877;28;20071;-57
2023/12/22 10:34:53;;;;;;;5.00;2.00;;;;;;;8.87;100.00;100344.97;5041471;28;20416;-58
2023/12/22 10:37:21;;;;;;;5.18;1.73;;;;;;;8.88;100.00;100342.22;5031775;28;20026;-58
2023/12/22 10:39:48;;;;;;;7.40;1.90;;;;;;;8.89;100.00;100343.03;5039175;28;20155;-58
2023/12/22 10:42:14;;;;;;;5.05;1.90;;;;;;;8.91;100.00;100348.22;5035634;28;20223;-58
2023/12/22 10:44:43;;;;;;;8.38;2.28;;;;;;;8.93;100.00;100341.84;5038710;28;20034;-58
2023/12/22 10:47:09;;;;;;;7.30;1.98;;;;;;;8.94;100.00;100342.69;5033298;28;20032;-58
2023/12/22 10:49:36;;;;;;;9.90;2.30;;;;;;;8.95;100.00;100347.03;5039408;28;20029;-58
2023/12/22 10:52:02;;;;;;;5.28;1.80;;;;;;;8.97;100.00;100353.88;5034435;28;20548;-58
2023/12/22 10:54:27;;;;;;;6.35;1.90;;;;;;;8.97;100.00;100353.88;5032870;28;20029;-58
2023/12/22 10:56:58;;;;;;;6.03;2.10;;;;;;;8.99;100.00;100349.34;5035353;28;20115;-58
2023/12/22 10:59:30;;;;;;;6.68;1.95;;;;;;;9.02;100.00;100345.59;5038066;28;20056;-58
2023/12/22 11:01:57;;;;;;;5.18;1.80;;;;;;;9.05;100.00;100340.88;5034567;28;20036;-57
2023/12/22 11:04:29;;;;;;;7.35;1.90;;;;;;;9.07;100.00;100338.13;5032123;28;20045;-57
2023/12/22 11:06:57;;;;;;;6.93;2.33;;;;;;;9.08;100.00;100359.19;5028637;28;20028;-57
2023/12/22 11:09:25;;;;;;;7.82;1.77;;;;;;;9.14;100.00;100338.47;5031289;28;20471;-58
2023/12/22 11:11:51;;;;;;;8.40;2.13;;;;;;;9.15;100.00;100341.00;5036667;28;20028;-58
2023/12/22 11:14:17;;;;;;;7.20;2.03;;;;;;;9.19;100.00;100336.31;5035739;28;20045;-58